createdAt,value
2023-02-24T00:04:03.000Z,36.60
2023-02-24T00:08:54.870Z,38.33
2023-02-24T00:13:47.171Z,36.37
2023-02-24T00:18:38.796Z,30.70
2023-02-24T00:23:30.844Z,20.67
2023-02-24T00:28:22.580Z,21.20
2023-02-24T00:33:14.301Z,14.30
2023-02-24T00:38:06.108Z,11.97
2023-02-24T00:42:58.305Z,10.37
2023-02-24T00:47:50.318Z,11.23
2023-02-24T00:52:43.325Z,10.27
2023-02-24T00:57:35.498Z,11.17
2023-02-24T01:02:27.329Z,8.30
2023-02-24T01:07:18.993Z,10.90
2023-02-24T01:12:38.100Z,9.57
2023-02-24T01:17:29.942Z,11.93
2023-02-24T01:22:21.711Z,13.43
2023-02-24T01:27:17.688Z,13.47
2023-02-24T01:32:19.685Z,15.47
2023-02-24T01:37:16.267Z,12.67
2023-02-24T01:42:16.375Z,15.27
2023-02-24T01:47:08.105Z,23.57
2023-02-24T01:52:04.540Z,15.47
2023-02-24T01:56:57.533Z,24.13
2023-02-24T02:01:53.362Z,28.63
2023-02-24T02:06:48.338Z,28.30
2023-02-24T02:11:40.254Z,25.57
2023-02-24T02:16:44.919Z,26.27
2023-02-24T02:21:57.086Z,29.23
2023-02-24T02:27:02.007Z,29.90
2023-02-24T02:32:24.423Z,31.23
2023-02-24T02:37:25.496Z,32.50
2023-02-24T02:42:17.322Z,30.57
2023-02-24T02:47:18.626Z,34.37
2023-02-24T02:52:21.627Z,28.03
2023-02-24T02:57:20.507Z,35.63
2023-02-24T03:02:15.065Z,34.73
2023-02-24T03:07:10.272Z,35.17
2023-02-24T03:12:17.503Z,31.47
2023-02-24T03:17:21.699Z,33.77
2023-02-24T03:22:17.807Z,40.97
2023-02-24T03:27:20.107Z,33.70
2023-02-24T03:32:27.127Z,32.23
2023-02-24T03:37:28.304Z,34.73
2023-02-24T03:42:23.037Z,28.53
2023-02-24T03:47:17.053Z,28.30
2023-02-24T03:52:23.057Z,28.67
2023-02-24T03:57:34.774Z,26.33
2023-02-24T04:02:31.514Z,30.90
2023-02-24T04:07:45.505Z,23.77
2023-02-24T04:12:47.106Z,23.10
2023-02-24T04:17:52.622Z,26.80
2023-02-24T04:22:51.632Z,24.73
2023-02-24T04:27:45.612Z,27.30
2023-02-24T04:32:44.404Z,23.73
2023-02-24T04:37:37.378Z,22.43
2023-02-24T04:42:29.096Z,18.33
2023-02-24T04:47:21.075Z,17.87
2023-02-24T04:52:15.281Z,22.50
2023-02-24T04:57:08.039Z,12.23
2023-02-24T05:02:01.669Z,18.03
2023-02-24T05:06:57.438Z,15.33
2023-02-24T05:11:51.654Z,10.83
2023-02-24T05:16:44.764Z,13.80
2023-02-24T05:21:36.496Z,12.10
2023-02-24T05:26:32.093Z,11.77
2023-02-24T05:31:26.972Z,15.40
2023-02-24T05:36:19.232Z,44.97
2023-02-24T05:41:17.134Z,13.83
2023-02-24T05:46:08.876Z,11.93
2023-02-24T05:51:07.919Z,15.10
2023-02-24T05:56:05.592Z,12.17
2023-02-24T06:00:58.705Z,10.87
2023-02-24T06:05:54.326Z,10.63
2023-02-24T06:10:47.396Z,15.50
2023-02-24T06:15:39.063Z,13.03
2023-02-24T06:20:32.942Z,11.77
2023-02-24T06:25:26.510Z,13.23
2023-02-24T06:30:18.971Z,15.30
2023-02-24T06:35:12.791Z,13.70
2023-02-24T06:40:15.696Z,17.33
2023-02-24T06:45:08.333Z,12.97
2023-02-24T06:50:00.004Z,10.37
2023-02-24T06:54:52.361Z,9.77
2023-02-24T06:59:44.216Z,9.53
2023-02-24T07:04:43.641Z,13.80
2023-02-24T07:09:35.861Z,11.13
2023-02-24T07:14:30.965Z,11.27
2023-02-24T07:19:32.612Z,7.87
2023-02-24T07:24:32.970Z,9.23
2023-02-24T07:29:25.807Z,15.27
2023-02-24T07:34:23.481Z,13.43
2023-02-24T07:39:16.851Z,11.67
2023-02-24T07:44:09.528Z,9.50
2023-02-24T07:49:03.015Z,13.53
2023-02-24T07:53:57.103Z,13.53
2023-02-24T07:58:57.729Z,12.30
2023-02-24T08:03:56.050Z,12.50
2023-02-24T08:08:59.948Z,9.73
2023-02-24T08:13:52.198Z,12.50
2023-02-24T08:18:49.182Z,8.37
2023-02-24T08:23:44.725Z,8.07
2023-02-24T08:28:38.283Z,8.97
2023-02-24T08:33:30.209Z,8.40
2023-02-24T08:38:25.933Z,11.03
2023-02-24T08:43:34.846Z,9.20
2023-02-24T08:48:38.853Z,13.93
2023-02-24T08:53:31.620Z,10.90
2023-02-24T08:58:27.119Z,13.80
2023-02-24T09:03:28.834Z,11.53
2023-02-24T09:08:24.102Z,8.63
2023-02-24T09:13:15.800Z,12.17
2023-02-24T09:18:07.510Z,13.20
2023-02-24T09:23:08.969Z,11.83
2023-02-24T09:28:17.402Z,11.87
2023-02-24T09:33:18.943Z,7.90
2023-02-24T09:38:10.724Z,10.10
2023-02-24T09:43:11.015Z,10.10
2023-02-24T09:48:12.812Z,7.60
2023-02-24T09:53:17.417Z,9.50
2023-02-24T09:58:43.006Z,10.00
2023-02-24T10:03:48.020Z,26.27
2023-02-24T10:08:49.796Z,12.53
2023-02-24T10:13:53.555Z,8.30
2023-02-24T10:19:01.322Z,8.37
2023-02-24T10:24:08.017Z,9.13
2023-02-24T10:29:09.099Z,11.60
2023-02-24T10:34:06.295Z,11.77
2023-02-24T10:38:58.085Z,10.37
2023-02-24T10:43:56.036Z,12.23
2023-02-24T10:48:52.825Z,10.60
2023-02-24T10:53:53.194Z,7.90
2023-02-24T10:58:45.026Z,10.60
2023-02-24T11:04:00.871Z,8.27
2023-02-24T11:09:18.222Z,6.00
2023-02-24T11:14:35.739Z,8.23
2023-02-24T11:19:31.115Z,7.47
2023-02-24T11:24:23.119Z,9.73
2023-02-24T11:29:45.141Z,7.53
2023-02-24T11:35:26.586Z,9.03
2023-02-24T11:40:25.772Z,9.67
2023-02-24T11:45:25.483Z,7.20
2023-02-24T11:50:26.149Z,9.67
2023-02-24T11:55:43.070Z,9.20
2023-02-24T12:00:39.024Z,11.47
2023-02-24T12:05:39.295Z,8.20
2023-02-24T12:11:07.103Z,12.00
2023-02-24T12:16:11.754Z,10.23
2023-02-24T12:21:12.706Z,7.93
2023-02-24T12:26:19.971Z,13.03
2023-02-24T12:31:33.597Z,10.70
2023-02-24T12:36:37.263Z,7.47
2023-02-24T12:41:54.685Z,10.10
2023-02-24T12:46:57.403Z,8.80
2023-02-24T12:51:56.943Z,8.70
2023-02-24T12:56:59.864Z,6.93
2023-02-24T13:02:05.138Z,10.03
2023-02-24T13:07:21.819Z,12.57
2023-02-24T13:12:38.316Z,8.97
2023-02-24T13:17:30.083Z,7.47
2023-02-24T13:22:26.949Z,8.93
2023-02-24T13:27:24.550Z,8.53
2023-02-24T13:32:36.906Z,7.73
2023-02-24T13:37:36.346Z,11.03
2023-02-24T13:42:30.386Z,7.20
2023-02-24T13:47:53.411Z,6.07
2023-02-24T13:53:15.310Z,5.00
2023-02-24T13:58:46.971Z,7.73
2023-02-24T14:03:41.686Z,6.33
2023-02-24T14:08:43.948Z,7.57
2023-02-24T14:13:36.770Z,7.00
2023-02-24T14:18:29.790Z,7.20
2023-02-24T14:23:31.620Z,10.17
2023-02-24T14:28:28.670Z,4.90
2023-02-24T14:33:42.016Z,9.90
2023-02-24T14:38:36.950Z,6.90
2023-02-24T14:43:29.663Z,11.73
2023-02-24T14:48:30.279Z,8.90
2023-02-24T14:53:23.587Z,6.83
2023-02-24T14:58:20.656Z,7.40
2023-02-24T15:03:30.392Z,7.63
2023-02-24T15:08:37.404Z,7.67
2023-02-24T15:13:42.264Z,8.43
2023-02-24T15:18:33.996Z,10.20
2023-02-24T15:23:36.979Z,9.20
2023-02-24T15:28:34.484Z,7.80
2023-02-24T15:33:32.840Z,7.83
2023-02-24T15:38:29.447Z,12.83
2023-02-24T15:43:56.122Z,8.60
2023-02-24T15:48:50.848Z,7.90
2023-02-24T15:53:42.562Z,8.20
2023-02-24T15:58:34.772Z,5.60
2023-02-24T16:03:26.504Z,10.47
2023-02-24T16:08:20.821Z,6.80
2023-02-24T16:13:19.068Z,7.63
2023-02-24T16:18:20.893Z,9.43
2023-02-24T16:23:14.805Z,7.00
2023-02-24T16:28:06.518Z,4.43
2023-02-24T16:33:00.386Z,7.97
2023-02-24T16:37:52.288Z,7.07
2023-02-24T16:42:43.896Z,9.00
2023-02-24T16:47:35.593Z,7.27
2023-02-24T16:52:28.812Z,7.27
2023-02-24T16:57:25.413Z,9.37
2023-02-24T17:02:22.165Z,7.90
2023-02-24T17:07:16.087Z,8.83
2023-02-24T17:12:11.247Z,8.17
2023-02-24T17:17:03.246Z,9.43
2023-02-24T17:21:55.009Z,6.73
2023-02-24T17:26:47.009Z,6.63
2023-02-24T17:31:39.093Z,8.33
2023-02-24T17:36:30.861Z,8.77
2023-02-24T17:41:24.097Z,8.20
2023-02-24T17:46:15.778Z,9.17
2023-02-24T17:51:07.450Z,10.13
2023-02-24T17:56:05.032Z,8.70
2023-02-24T18:00:57.159Z,11.17
2023-02-24T18:05:48.758Z,6.93
2023-02-24T18:10:40.451Z,8.73
2023-02-24T18:15:32.072Z,6.73
2023-02-24T18:20:24.156Z,6.93
2023-02-24T18:25:15.907Z,6.53
2023-02-24T18:30:10.103Z,6.43
2023-02-24T18:35:01.864Z,7.47
2023-02-24T18:39:53.724Z,9.20
2023-02-24T18:44:45.385Z,9.30
2023-02-24T18:49:37.336Z,9.33
2023-02-24T18:54:28.989Z,9.60
2023-02-24T18:59:20.649Z,11.77
2023-02-24T19:04:13.355Z,10.00
2023-02-24T19:09:11.013Z,17.13
2023-02-24T19:14:03.326Z,14.07
2023-02-24T19:18:56.633Z,9.73
2023-02-24T19:23:48.838Z,14.30
2023-02-24T19:28:40.516Z,7.83
2023-02-24T19:33:32.121Z,5.73
2023-02-24T19:38:23.821Z,5.57
2023-02-24T19:43:15.544Z,5.77
2023-02-24T19:48:07.606Z,4.57
2023-02-24T19:52:59.276Z,5.73
2023-02-24T19:57:54.861Z,3.07
2023-02-24T20:02:46.638Z,9.50
2023-02-24T20:07:38.712Z,3.27
2023-02-24T20:12:30.414Z,3.43
2023-02-24T20:17:22.236Z,4.93
2023-02-24T20:22:13.890Z,8.77
2023-02-24T20:27:05.750Z,6.37
2023-02-24T20:31:57.550Z,7.87
2023-02-24T20:36:49.433Z,6.37
2023-02-24T20:41:41.507Z,12.27
2023-02-24T20:46:33.284Z,6.40
2023-02-24T20:51:26.392Z,6.00
2023-02-24T20:56:20.620Z,5.03
2023-02-24T21:01:15.445Z,8.03
2023-02-24T21:06:10.662Z,6.77
2023-02-24T21:11:02.742Z,10.50
2023-02-24T21:15:55.449Z,8.07
2023-02-24T21:20:47.274Z,4.80
2023-02-24T21:25:39.641Z,5.77
2023-02-24T21:30:31.448Z,6.17
2023-02-24T21:35:23.216Z,4.03
2023-02-24T21:40:17.595Z,8.57
2023-02-24T21:45:14.017Z,4.93
2023-02-24T21:50:07.390Z,5.67
2023-02-24T21:54:59.537Z,7.87
2023-02-24T21:59:51.126Z,6.50
2023-02-24T22:04:46.779Z,8.30
2023-02-24T22:09:38.458Z,7.73
2023-02-24T22:14:31.444Z,9.10
2023-02-24T22:19:23.439Z,10.63
2023-02-24T22:24:17.662Z,9.83
2023-02-24T22:29:09.807Z,9.93
2023-02-24T22:34:02.304Z,10.03
2023-02-24T22:38:59.236Z,14.97
2023-02-24T22:43:51.784Z,10.97
